Hersey, Michigan
Current Conditions -  °F | °C
As of 2:14 PM on Monday 20 Oct 2014 (Local Time) from KRQB Reporting Station
Overcast Overcast  
Wind Chill: 54°   Ceiling: 1500
Heat Index: 54°   Visibility: 10mi
Dew Point: 52°   Wind: 8mph
Humidity: 91%   Direction: 340°NNW
Pressure: 29.78"   Gusts: NA
Location:  43.85°N, 85.44°W
Report Text: KRQB 201814Z AUTO 34007KT 10SM BKN015 BKN040 OVC060 12/11 A2978 RMK AO2 T01230109
Loading
Personal Weather Stations






























Interactive Weather Map
Tropical Storm Tracking
New forecast layout! Learn more

10-Day Weather Forecast

Advertisements
Track Severe Weather on mobile